Time;durP1;ratioP1;P1;durP2;ratioP2;P2;SDS_P1;SDS_P2;PMS_P1;PMS_P2;Temp;Humidity;BMP_temperature;BMP_pressure;BME280_temperature;BME280_humidity;BME280_pressure;Samples;Min_cycle;Max_cycle;Signal;HPM_P1;HPM_P2
2022/02/04 00:20:25;;;;;;;1.48;1.38;;;;;;;;;;5139789;27;20198;-83
2022/02/04 00:23:07;;;;;;;2.22;2.03;;;;;;;;;;5139405;27;20240;-81
2022/02/04 00:25:48;;;;;;;1.77;1.67;;;;;;;;;;5148305;27;20217;-82
2022/02/04 00:28:23;;;;;;;1.80;1.70;;;;;;;;;;5158443;27;20202;-81
2022/02/04 00:31:04;;;;;;;2.10;2.00;;;;;;;;;;5145777;27;20733;-82
2022/02/04 00:33:34;;;;;;;1.92;1.83;;;;;;;;;;5140466;27;20202;-83
2022/02/04 00:36:09;;;;;;;1.88;1.77;;;;;;;;;;5140260;27;20199;-83
2022/02/04 00:38:41;;;;;;;1.90;1.80;;;;;;;;;;5140067;27;20198;-83
2022/02/04 00:41:11;;;;;;;2.28;1.83;;;;;;;;;;5140483;27;20195;-81
2022/02/04 00:43:39;;;;;;;2.40;2.20;;;;;;;;;;5139695;27;20203;-81
2022/02/04 00:46:12;;;;;;;1.90;1.80;;;;;;;;;;5139784;27;20229;-81
2022/02/04 00:48:46;;;;;;;2.30;2.10;;;;;;;;;;5139497;27;20202;-82
2022/02/04 00:51:22;;;;;;;2.85;2.65;;;;;;;;;;5139526;27;20218;-82
2022/02/04 00:53:56;;;;;;;3.28;3.05;;;;;;;;;;5139633;27;20293;-82
2022/02/04 00:56:32;;;;;;;2.85;2.65;;;;;;;;;;5139235;27;20210;-82
2022/02/04 01:26:28;;;;;;;4.15;3.83;;;;;;;;;;5139100;27;20690;-82
2022/02/04 01:28:55;;;;;;;3.35;3.05;;;;;;;;;;5138363;27;20723;-81
2022/02/04 01:31:23;;;;;;;3.10;2.90;;;;;;;;;;5138336;27;20697;-80
2022/02/04 01:33:53;;;;;;;3.30;3.00;;;;;;;;;;5138668;27;20207;-81
2022/02/04 01:36:20;;;;;;;2.70;2.50;;;;;;;;;;5138846;27;20234;-82
2022/02/04 01:38:49;;;;;;;2.95;2.75;;;;;;;;;;5138803;27;20195;-81
2022/02/04 01:41:17;;;;;;;3.30;2.97;;;;;;;;;;5138505;27;20195;-82
2022/02/04 01:43:45;;;;;;;2.88;2.67;;;;;;;;;;5138726;27;20580;-82
2022/02/04 01:46:14;;;;;;;3.53;3.33;;;;;;;;;;5138558;27;20208;-81
2022/02/04 01:48:43;;;;;;;2.47;2.28;;;;;;;;;;5138437;27;20203;-80
2022/02/04 01:51:13;;;;;;;3.35;3.10;;;;;;;;;;5138325;27;20624;-81
2022/02/04 01:53:40;;;;;;;3.88;3.58;;;;;;;;;;5138296;27;20199;-82
2022/02/04 01:56:11;;;;;;;3.92;3.63;;;;;;;;;;5138568;27;20203;-81
2022/02/04 01:58:40;;;;;;;3.63;3.33;;;;;;;;;;5138444;27;20252;-81
2022/02/04 02:01:08;;;;;;;3.20;3.00;;;;;;;;;;5138538;27;20281;-80
2022/02/04 02:03:35;;;;;;;3.85;3.55;;;;;;;;;;5138554;27;20205;-82
2022/02/04 02:06:07;;;;;;;3.63;3.35;;;;;;;;;;5138289;27;20202;-81
2022/02/04 02:08:35;;;;;;;4.38;3.97;;;;;;;;;;5138480;27;20206;-82
2022/02/04 02:11:02;;;;;;;4.85;4.45;;;;;;;;;;5138157;27;20225;-81
2022/02/04 02:13:39;;;;;;;3.25;3.05;;;;;;;;;;5138584;27;20210;-82
2022/02/04 02:16:19;;;;;;;4.82;4.43;;;;;;;;;;5139283;27;20213;-81
2022/02/04 02:33:27;;;;;;;3.63;3.33;;;;;;;;;;5156545;27;20214;-79
2022/02/04 02:36:18;;;;;;;6.00;5.40;;;;;;;;;;5157858;27;20183;-78
2022/02/04 02:44:29;;;;;;;5.25;4.75;;;;;;;;;;5144652;27;20210;-79
2022/02/04 02:50:10;;;;;;;3.92;3.63;;;;;;;;;;5135535;27;20209;-78
2022/02/04 02:52:51;;;;;;;3.78;3.47;;;;;;;;;;5156361;27;20211;-78
2022/02/04 02:55:31;;;;;;;5.00;4.35;;;;;;;;;;5156205;27;20237;-78
2022/02/04 02:58:07;;;;;;;4.95;4.45;;;;;;;;;;5148441;27;20203;-78
2022/02/04 03:00:51;;;;;;;4.22;3.92;;;;;;;;;;5134388;27;20322;-78
2022/02/04 03:03:21;;;;;;;4.70;4.22;;;;;;;;;;5134159;27;20219;-80
2022/02/04 03:05:48;;;;;;;3.72;3.42;;;;;;;;;;5134550;27;20199;-80
2022/02/04 03:08:16;;;;;;;3.38;3.08;;;;;;;;;;5134074;27;20195;-79
2022/02/04 03:10:44;;;;;;;4.25;3.85;;;;;;;;;;5133968;27;20705;-80
2022/02/04 03:13:12;;;;;;;5.15;4.40;;;;;;;;;;5134003;27;20219;-79
2022/02/04 03:15:39;;;;;;;5.03;4.55;;;;;;;;;;5134173;27;20521;-80
2022/02/04 03:18:10;;;;;;;4.88;4.47;;;;;;;;;;5133513;27;20206;-78
2022/02/04 03:20:46;;;;;;;4.65;4.28;;;;;;;;;;5134224;27;20194;-78
2022/02/04 03:23:13;;;;;;;3.05;2.85;;;;;;;;;;5133843;27;20721;-79
2022/02/04 03:25:46;;;;;;;4.75;4.35;;;;;;;;;;5134089;27;20206;-79
2022/02/04 03:28:20;;;;;;;4.85;3.90;;;;;;;;;;5134260;27;20213;-80
2022/02/04 03:30:49;;;;;;;5.57;4.25;;;;;;;;;;5134055;27;20221;-78
2022/02/04 03:33:19;;;;;;;5.38;4.88;;;;;;;;;;5133651;27;20250;-80
2022/02/04 03:35:46;;;;;;;4.03;3.72;;;;;;;;;;5133761;27;20203;-80
2022/02/04 03:38:14;;;;;;;4.30;3.90;;;;;;;;;;5146251;27;20203;-78
2022/02/04 03:40:41;;;;;;;4.97;4.47;;;;;;;;;;5154133;27;20210;-80
2022/02/04 03:43:08;;;;;;;5.75;5.35;;;;;;;;;;5141242;27;20275;-81
2022/02/04 03:45:37;;;;;;;5.18;4.68;;;;;;;;;;5136337;27;20206;-81
2022/02/04 03:48:05;;;;;;;6.75;6.15;;;;;;;;;;5136082;27;20199;-81
2022/02/04 03:50:33;;;;;;;3.35;3.03;;;;;;;;;;5136680;27;20199;-81
2022/02/04 03:53:00;;;;;;;5.03;4.53;;;;;;;;;;5136200;27;20223;-80
2022/02/04 03:55:28;;;;;;;4.10;3.80;;;;;;;;;;5136444;27;20199;-81
2022/02/04 03:57:55;;;;;;;3.92;3.53;;;;;;;;;;5136032;27;20205;-81
2022/02/04 04:00:22;;;;;;;5.47;4.80;;;;;;;;;;5135610;27;20210;-80
2022/02/04 04:02:52;;;;;;;4.13;3.83;;;;;;;;;;5135068;27;20221;-81
2022/02/04 04:05:19;;;;;;;5.63;5.13;;;;;;;;;;5134924;27;20203;-81
2022/02/04 04:07:49;;;;;;;5.00;4.60;;;;;;;;;;5135108;28;20199;-81
2022/02/04 04:10:21;;;;;;;4.82;4.38;;;;;;;;;;5135633;28;20203;-81
2022/02/04 04:12:49;;;;;;;3.90;3.60;;;;;;;;;;5134690;28;20226;-81
2022/02/04 04:15:17;;;;;;;4.63;4.20;;;;;;;;;;5135453;28;20207;-80
2022/02/04 04:17:46;;;;;;;4.88;4.47;;;;;;;;;;5135013;28;20242;-79
2022/02/04 04:20:19;;;;;;;5.78;5.20;;;;;;;;;;5134914;28;20238;-80
2022/02/04 04:22:47;;;;;;;5.20;4.70;;;;;;;;;;5134859;28;20222;-81
2022/02/04 04:25:15;;;;;;;3.88;3.58;;;;;;;;;;5134745;28;20684;-81
2022/02/04 04:27:44;;;;;;;4.50;4.10;;;;;;;;;;5134645;28;20202;-80
2022/02/04 04:30:14;;;;;;;3.67;3.38;;;;;;;;;;5134624;28;20203;-81
2022/02/04 04:32:41;;;;;;;4.15;3.85;;;;;;;;;;5134259;28;20252;-79
2022/02/04 04:35:11;;;;;;;4.25;3.85;;;;;;;;;;5134070;28;20694;-80
2022/02/04 04:37:45;;;;;;;4.97;4.57;;;;;;;;;;5135190;28;20788;-80
2022/02/04 04:40:30;;;;;;;4.40;4.00;;;;;;;;;;5134511;28;20195;-81
2022/02/04 04:43:07;;;;;;;4.93;4.45;;;;;;;;;;5133637;28;20693;-81
2022/02/04 04:46:05;;;;;;;4.15;3.75;;;;;;;;;;5134369;28;20203;-81
2022/02/04 05:29:48;;;;;;;2.78;2.58;;;;;;;;;;5068045;28;20609;-86
2022/02/04 05:32:16;;;;;;;3.15;2.90;;;;;;;;;;5116303;28;20231;-86
2022/02/04 05:34:45;;;;;;;3.30;3.03;;;;;;;;;;5116480;28;20199;-86
2022/02/04 05:37:14;;;;;;;3.65;3.35;;;;;;;;;;5116819;28;20268;-87
2022/02/04 05:39:51;;;;;;;3.00;2.80;;;;;;;;;;5116624;28;20229;-86
2022/02/04 05:42:24;;;;;;;3.63;3.33;;;;;;;;;;5116097;28;20215;-86
2022/02/04 05:44:57;;;;;;;2.80;2.60;;;;;;;;;;5116265;28;20660;-86
2022/02/04 05:47:25;;;;;;;4.45;3.80;;;;;;;;;;5118552;28;20191;-82
2022/02/04 05:50:07;;;;;;;4.05;3.75;;;;;;;;;;5120821;28;20671;-83
2022/02/04 05:52:50;;;;;;;4.10;3.70;;;;;;;;;;5119993;28;20224;-83
2022/02/04 05:55:31;;;;;;;3.25;2.97;;;;;;;;;;5121116;28;20266;-83
2022/02/04 05:58:12;;;;;;;4.80;4.40;;;;;;;;;;5120541;28;20738;-83
2022/02/04 06:00:46;;;;;;;3.78;3.45;;;;;;;;;;5120784;28;20230;-83
2022/02/04 06:03:29;;;;;;;3.92;3.63;;;;;;;;;;5120801;28;20626;-83
2022/02/04 06:06:14;;;;;;;3.72;3.42;;;;;;;;;;5120671;28;20203;-83
2022/02/04 06:09:08;;;;;;;4.32;3.92;;;;;;;;;;5120878;28;20210;-83
2022/02/04 06:11:46;;;;;;;4.25;3.85;;;;;;;;;;5120038;28;20218;-81
2022/02/04 06:14:44;;;;;;;3.83;3.53;;;;;;;;;;5119920;28;20203;-82
2022/02/04 06:22:41;;;;;;;4.00;3.65;;;;;;;;;;5118475;28;20219;-82
2022/02/04 06:25:10;;;;;;;4.32;3.92;;;;;;;;;;5117575;28;20294;-82
2022/02/04 06:27:38;;;;;;;3.45;3.15;;;;;;;;;;5118350;28;20195;-82
2022/02/04 06:30:08;;;;;;;3.58;3.28;;;;;;;;;;5116724;28;20207;-82
2022/02/04 06:32:35;;;;;;;3.53;3.22;;;;;;;;;;5115480;28;20232;-82
2022/02/04 06:35:04;;;;;;;3.40;3.10;;;;;;;;;;5113079;28;20207;-83
2022/02/04 06:37:32;;;;;;;3.63;3.33;;;;;;;;;;5114287;28;20202;-80
2022/02/04 06:39:59;;;;;;;3.40;3.10;;;;;;;;;;5115775;28;20206;-82
2022/02/04 06:42:28;;;;;;;3.92;3.63;;;;;;;;;;5115792;28;20227;-82
2022/02/04 06:44:57;;;;;;;3.45;3.15;;;;;;;;;;5115756;28;20199;-82
2022/02/04 06:47:27;;;;;;;3.60;3.30;;;;;;;;;;5116431;28;20215;-82
2022/02/04 06:49:55;;;;;;;3.83;3.53;;;;;;;;;;5116900;28;20204;-82
2022/02/04 06:52:22;;;;;;;3.40;3.13;;;;;;;;;;5116608;28;20314;-82
2022/02/04 06:54:49;;;;;;;3.40;3.10;;;;;;;;;;5117285;28;20199;-82
2022/02/04 06:57:17;;;;;;;4.55;4.15;;;;;;;;;;5115565;28;20663;-82
2022/02/04 06:59:46;;;;;;;3.15;2.85;;;;;;;;;;5115563;28;20234;-83
2022/02/04 07:02:14;;;;;;;3.30;3.10;;;;;;;;;;5115473;28;20231;-83
2022/02/04 07:04:43;;;;;;;3.60;3.30;;;;;;;;;;5112934;28;20214;-83
2022/02/04 07:07:12;;;;;;;3.95;3.60;;;;;;;;;;5116788;28;20231;-83
2022/02/04 07:09:47;;;;;;;3.30;3.10;;;;;;;;;;5116613;28;20210;-83
2022/02/04 07:12:26;;;;;;;3.28;2.95;;;;;;;;;;5116110;28;20752;-83
2022/02/04 07:18:02;;;;;;;4.38;3.97;;;;;;;;;;5054763;28;20570;-83
2022/02/04 07:20:30;;;;;;;4.25;3.85;;;;;;;;;;5106885;28;20231;-83
2022/02/04 07:22:57;;;;;;;4.53;4.13;;;;;;;;;;5116284;28;20215;-83
2022/02/04 07:25:24;;;;;;;5.68;5.18;;;;;;;;;;5117338;28;20192;-84
2022/02/04 07:27:52;;;;;;;5.43;5.03;;;;;;;;;;5118224;28;20199;-84
2022/02/04 07:30:20;;;;;;;4.55;4.15;;;;;;;;;;5118478;28;20663;-83
2022/02/04 07:32:56;;;;;;;4.30;3.95;;;;;;;;;;5118353;28;20223;-84
2022/02/04 07:41:00;;;;;;;5.28;4.78;;;;;;;;;;5117949;28;20628;-84
2022/02/04 07:43:28;;;;;;;5.60;5.00;;;;;;;;;;5117387;28;20254;-84
2022/02/04 07:45:57;;;;;;;5.32;4.82;;;;;;;;;;5118218;28;20200;-86
2022/02/04 07:48:25;;;;;;;5.40;4.90;;;;;;;;;;5119587;28;20286;-83
2022/02/04 07:50:53;;;;;;;5.25;4.75;;;;;;;;;;5119396;28;20203;-84
2022/02/04 07:53:24;;;;;;;4.43;4.03;;;;;;;;;;5118115;28;20227;-84
2022/02/04 07:55:52;;;;;;;5.97;5.40;;;;;;;;;;5116995;28;20199;-84
2022/02/04 07:58:19;;;;;;;5.47;4.97;;;;;;;;;;5117272;28;20206;-84
2022/02/04 08:00:46;;;;;;;3.88;3.58;;;;;;;;;;5118193;28;20195;-83
2022/02/04 08:03:29;;;;;;;4.05;3.75;;;;;;;;;;5117176;28;20276;-84
2022/02/04 08:06:01;;;;;;;3.95;3.65;;;;;;;;;;5119529;28;20663;-83
2022/02/04 08:08:36;;;;;;;3.95;3.65;;;;;;;;;;5119755;28;20207;-83
2022/02/04 08:11:20;;;;;;;5.55;4.25;;;;;;;;;;5121289;28;20617;-84
2022/02/04 08:25:05;;;;;;;3.45;3.15;;;;;;;;;;5104706;28;20198;-82
2022/02/04 08:27:51;;;;;;;3.20;3.00;;;;;;;;;;5116088;28;20208;-83
2022/02/04 08:39:05;;;;;;;2.42;2.22;;;;;;;;;;5079601;28;20203;-82
2022/02/04 08:47:31;;;;;;;2.35;2.15;;;;;;;;;;5120002;28;20207;-83
2022/02/04 08:50:26;;;;;;;2.50;2.30;;;;;;;;;;5120502;28;20684;-83
2022/02/04 08:53:02;;;;;;;2.67;2.47;;;;;;;;;;5119169;28;20231;-84
2022/02/04 08:55:39;;;;;;;2.42;2.22;;;;;;;;;;5120531;28;20285;-83
2022/02/04 08:58:22;;;;;;;2.90;2.70;;;;;;;;;;5120347;28;20199;-83
2022/02/04 09:00:58;;;;;;;2.35;2.03;;;;;;;;;;5119908;28;20200;-82
2022/02/04 09:03:29;;;;;;;3.03;2.72;;;;;;;;;;5119658;28;20242;-82
2022/02/04 09:06:07;;;;;;;2.17;2.05;;;;;;;;;;5119019;28;20277;-83
2022/02/04 09:08:37;;;;;;;2.15;1.95;;;;;;;;;;5119103;28;20200;-83
2022/02/04 09:11:08;;;;;;;1.98;1.88;;;;;;;;;;5119916;28;20264;-84
2022/02/04 09:19:12;;;;;;;2.08;1.98;;;;;;;;;;5120860;28;20206;-83
2022/02/04 09:22:04;;;;;;;1.63;1.52;;;;;;;;;;5121442;28;20200;-83
2022/02/04 09:24:32;;;;;;;1.60;1.50;;;;;;;;;;5121151;28;20204;-84
2022/02/04 09:26:59;;;;;;;1.67;1.55;;;;;;;;;;5120050;28;20196;-84
2022/02/04 09:29:28;;;;;;;2.85;2.55;;;;;;;;;;5119561;28;20199;-84
2022/02/04 09:31:55;;;;;;;2.33;2.13;;;;;;;;;;5118725;28;20277;-84
2022/02/04 09:34:22;;;;;;;2.30;2.17;;;;;;;;;;5119105;28;20246;-83
2022/02/04 09:36:49;;;;;;;1.80;1.70;;;;;;;;;;5120512;28;20202;-82
2022/02/04 09:39:17;;;;;;;1.75;1.65;;;;;;;;;;5119911;28;20218;-83
2022/02/04 09:41:44;;;;;;;1.83;1.73;;;;;;;;;;5120582;28;20231;-84
2022/02/04 09:44:12;;;;;;;1.90;1.80;;;;;;;;;;5121577;28;20203;-82
2022/02/04 09:46:41;;;;;;;2.63;2.42;;;;;;;;;;5118921;28;20245;-84
2022/02/04 09:49:19;;;;;;;2.00;1.85;;;;;;;;;;5118559;28;20203;-83
2022/02/04 10:04:21;;;;;;;2.10;1.95;;;;;;;;;;5117176;28;20235;-82
2022/02/04 10:09:26;;;;;;;1.67;1.58;;;;;;;;;;5118616;28;20256;-81
2022/02/04 10:15:16;;;;;;;2.00;1.90;;;;;;;;;;5034374;28;20315;-84
2022/02/04 10:18:00;;;;;;;1.60;1.50;;;;;;;;;;5110883;28;20203;-85
2022/02/04 10:20:29;;;;;;;2.38;2.17;;;;;;;;;;5117125;28;20665;-85
2022/02/04 10:22:56;;;;;;;2.15;1.98;;;;;;;;;;5117848;28;20223;-84
2022/02/04 10:25:32;;;;;;;1.60;1.50;;;;;;;;;;5117208;28;20573;-85
2022/02/04 10:28:04;;;;;;;1.23;1.20;;;;;;;;;;5118044;28;20191;-83
2022/02/04 10:30:32;;;;;;;1.50;1.40;;;;;;;;;;5117281;28;20195;-85
2022/02/04 10:33:02;;;;;;;1.50;1.40;;;;;;;;;;5117113;28;20230;-83
2022/02/04 10:35:34;;;;;;;1.50;1.40;;;;;;;;;;5117856;28;20223;-84
2022/02/04 10:38:13;;;;;;;0.98;0.98;;;;;;;;;;5116887;28;20291;-84
2022/02/04 10:40:53;;;;;;;1.17;1.17;;;;;;;;;;5117771;28;20616;-83
2022/02/04 10:43:35;;;;;;;1.30;1.20;;;;;;;;;;5119726;28;20245;-84
2022/02/04 10:46:13;;;;;;;1.45;1.35;;;;;;;;;;5118679;28;20191;-83
2022/02/04 10:51:55;;;;;;;1.50;1.40;;;;;;;;;;5117116;28;20249;-83
2022/02/04 10:57:38;;;;;;;1.08;1.08;;;;;;;;;;5121398;28;20694;-85
2022/02/04 11:00:21;;;;;;;1.25;1.17;;;;;;;;;;5121043;28;20238;-84
2022/02/04 11:02:59;;;;;;;1.20;1.15;;;;;;;;;;5120556;28;20223;-85
2022/02/04 11:05:43;;;;;;;1.63;1.52;;;;;;;;;;5121452;28;20223;-84
2022/02/04 11:08:26;;;;;;;1.10;1.10;;;;;;;;;;5121873;28;20225;-84
2022/02/04 11:30:58;;;;;;;1.40;1.33;;;;;;;;;;5119695;28;20238;-84
2022/02/04 11:31:06;;;;;;;1.15;1.10;;;;;;;;;;5118572;28;20194;-84
2022/02/04 11:34:11;;;;;;;1.52;1.42;;;;;;;;;;5120225;28;20255;-84
2022/02/04 11:37:02;;;;;;;1.40;1.30;;;;;;;;;;5120117;28;20226;-84
2022/02/04 11:52:05;;;;;;;1.10;1.10;;;;;;;;;;5116878;28;20191;-82
2022/02/04 11:54:45;;;;;;;1.00;1.00;;;;;;;;;;5116186;28;20196;-82
2022/02/04 11:57:20;;;;;;;1.50;1.40;;;;;;;;;;5116445;28;20233;-81
2022/02/04 11:59:51;;;;;;;1.15;1.10;;;;;;;;;;5116276;28;20203;-81
2022/02/04 12:02:41;;;;;;;1.70;1.60;;;;;;;;;;5116301;28;20229;-82
2022/02/04 12:05:33;;;;;;;1.20;1.10;;;;;;;;;;5115916;28;20204;-82
2022/02/04 12:08:31;;;;;;;1.10;1.10;;;;;;;;;;5116365;28;20639;-82
2022/02/04 12:11:02;;;;;;;1.05;1.00;;;;;;;;;;5116469;28;20230;-82
2022/02/04 12:13:30;;;;;;;1.20;1.20;;;;;;;;;;5116864;28;20219;-82
2022/02/04 12:16:05;;;;;;;1.63;1.52;;;;;;;;;;5116364;28;20225;-82
2022/02/04 12:19:11;;;;;;;1.30;1.20;;;;;;;;;;5116543;28;20199;-82
2022/02/04 12:21:51;;;;;;;1.88;1.50;;;;;;;;;;5116490;28;20249;-82
2022/02/04 12:24:46;;;;;;;1.67;1.58;;;;;;;;;;5117155;28;20199;-82
2022/02/04 12:27:34;;;;;;;1.50;1.40;;;;;;;;;;5114882;28;20745;-85
2022/02/04 12:30:20;;;;;;;1.60;1.50;;;;;;;;;;5121308;28;20215;-82
2022/02/04 12:32:50;;;;;;;1.42;1.33;;;;;;;;;;5117848;28;20223;-82
2022/02/04 12:35:18;;;;;;;1.55;1.45;;;;;;;;;;5116904;28;20255;-82
2022/02/04 12:37:47;;;;;;;1.75;1.63;;;;;;;;;;5117663;28;20575;-82
2022/02/04 12:40:16;;;;;;;1.10;1.10;;;;;;;;;;5117843;28;20675;-83
2022/02/04 12:42:45;;;;;;;1.50;1.40;;;;;;;;;;5118445;28;20219;-82
2022/02/04 12:45:14;;;;;;;1.00;1.00;;;;;;;;;;5118532;28;20200;-82
2022/02/04 12:47:42;;;;;;;1.40;1.30;;;;;;;;;;5119727;28;20207;-82
2022/02/04 12:50:10;;;;;;;1.23;1.13;;;;;;;;;;5120628;28;20259;-82
2022/02/04 12:52:47;;;;;;;1.40;1.25;;;;;;;;;;5120479;28;20702;-82
2022/02/04 12:55:24;;;;;;;1.88;1.77;;;;;;;;;;5120010;28;20225;-82
2022/02/04 12:58:11;;;;;;;1.23;1.13;;;;;;;;;;5119380;28;20205;-83
2022/02/04 13:07:29;;;;;;;1.02;1.00;;;;;;;;;;5116985;28;20217;-83
2022/02/04 13:09:49;;;;;;;1.25;1.25;;;;;;;;;;5089731;28;20202;-83
2022/02/04 13:12:17;;;;;;;1.33;1.23;;;;;;;;;;5115536;28;20334;-83
2022/02/04 13:14:47;;;;;;;2.67;0.90;;;;;;;;;;5115459;28;20622;-83
2022/02/04 13:17:28;;;;;;;0.75;0.75;;;;;;;;;;5116059;28;20228;-83
2022/02/04 13:19:56;;;;;;;1.25;1.25;;;;;;;;;;5117060;28;20203;-82
2022/02/04 13:22:23;;;;;;;0.98;0.98;;;;;;;;;;5116547;28;20223;-83
2022/02/04 13:25:09;;;;;;;0.90;0.90;;;;;;;;;;5118095;28;20215;-83
2022/02/04 13:27:38;;;;;;;0.70;0.70;;;;;;;;;;5121609;28;20270;-82
2022/02/04 13:30:22;;;;;;;1.00;0.90;;;;;;;;;;5120489;28;20204;-83
2022/02/04 13:32:50;;;;;;;1.10;1.10;;;;;;;;;;5121012;28;20292;-82
2022/02/04 13:35:31;;;;;;;1.30;1.20;;;;;;;;;;5120638;28;20215;-83
2022/02/04 13:38:05;;;;;;;1.20;1.20;;;;;;;;;;5121987;28;20210;-83
2022/02/04 13:41:06;;;;;;;0.82;0.82;;;;;;;;;;5121129;28;20207;-81
2022/02/04 13:43:42;;;;;;;0.80;0.80;;;;;;;;;;5125994;28;20250;-81
2022/02/04 13:46:21;;;;;;;0.90;0.90;;;;;;;;;;5132656;28;20226;-82
2022/02/04 13:51:56;;;;;;;0.90;0.90;;;;;;;;;;5130521;28;20261;-82
2022/02/04 13:57:26;;;;;;;1.27;1.17;;;;;;;;;;5104155;28;20223;-83
2022/02/04 14:00:09;;;;;;;1.58;1.10;;;;;;;;;;5120930;28;20239;-83
2022/02/04 14:02:43;;;;;;;1.30;1.20;;;;;;;;;;5121641;28;20219;-83
2022/02/04 14:05:13;;;;;;;0.90;0.90;;;;;;;;;;5122489;28;20206;-83
2022/02/04 14:07:47;;;;;;;1.25;1.25;;;;;;;;;;5121087;28;20234;-83
2022/02/04 14:10:24;;;;;;;1.40;1.30;;;;;;;;;;5122144;28;20203;-84
2022/02/04 14:13:03;;;;;;;1.05;1.02;;;;;;;;;;5125952;28;20219;-83
2022/02/04 14:15:33;;;;;;;1.40;1.30;;;;;;;;;;5122514;28;20195;-84
2022/02/04 14:18:06;;;;;;;1.23;1.20;;;;;;;;;;5122726;28;20710;-83
2022/02/04 14:20:34;;;;;;;1.05;1.05;;;;;;;;;;5122504;28;20200;-84
2022/02/04 14:23:01;;;;;;;2.00;1.90;;;;;;;;;;5122364;28;20251;-83
2022/02/04 14:25:29;;;;;;;1.10;1.10;;;;;;;;;;5122798;28;20204;-83
2022/02/04 14:28:00;;;;;;;1.45;1.35;;;;;;;;;;5123398;28;20195;-83
2022/02/04 14:30:32;;;;;;;1.17;1.17;;;;;;;;;;5122350;28;20204;-84
2022/02/04 14:33:09;;;;;;;1.27;1.17;;;;;;;;;;5121352;28;20255;-83
2022/02/04 14:35:50;;;;;;;1.30;1.20;;;;;;;;;;5122044;28;20199;-83
2022/02/04 14:49:52;;;;;;;1.33;1.23;;;;;;;;;;5122297;28;20198;-83
2022/02/04 14:52:27;;;;;;;1.10;1.10;;;;;;;;;;5121756;28;20605;-85
2022/02/04 15:00:45;;;;;;;1.75;1.65;;;;;;;;;;5122147;28;20251;-81
2022/02/04 15:03:27;;;;;;;1.25;1.20;;;;;;;;;;5120066;28;20222;-83
2022/02/04 15:06:04;;;;;;;1.20;1.20;;;;;;;;;;5119867;28;20210;-83
2022/02/04 15:08:35;;;;;;;1.00;1.00;;;;;;;;;;5121224;28;20290;-81
2022/02/04 15:11:13;;;;;;;0.93;0.93;;;;;;;;;;5118961;28;20207;-82
2022/02/04 15:13:42;;;;;;;0.93;0.93;;;;;;;;;;5118551;28;20215;-82
2022/02/04 15:16:09;;;;;;;0.80;0.80;;;;;;;;;;5118964;28;20203;-83
2022/02/04 15:18:37;;;;;;;1.00;1.00;;;;;;;;;;5121797;28;20285;-82
2022/02/04 15:21:12;;;;;;;0.80;0.80;;;;;;;;;;5123603;28;20206;-82
2022/02/04 15:23:43;;;;;;;0.77;0.77;;;;;;;;;;5121536;28;20280;-82
2022/02/04 15:26:12;;;;;;;0.80;0.80;;;;;;;;;;5122448;28;20199;-82
2022/02/04 15:28:43;;;;;;;0.93;0.93;;;;;;;;;;5118604;28;20191;-82
2022/02/04 15:31:21;;;;;;;0.90;0.90;;;;;;;;;;5118728;28;20239;-83
2022/02/04 15:33:50;;;;;;;1.00;0.90;;;;;;;;;;5118387;28;20661;-82
2022/02/04 15:36:26;;;;;;;0.95;0.95;;;;;;;;;;5117999;28;20246;-82
2022/02/04 15:38:54;;;;;;;0.60;0.60;;;;;;;;;;5117917;28;20233;-82
2022/02/04 15:41:24;;;;;;;0.60;0.60;;;;;;;;;;5118632;28;20203;-82
2022/02/04 15:43:55;;;;;;;0.70;0.70;;;;;;;;;;5117346;28;20210;-82
2022/02/04 15:49:30;;;;;;;0.50;0.50;;;;;;;;;;5118341;28;20622;-83
2022/02/04 15:52:36;;;;;;;0.98;0.98;;;;;;;;;;5119304;28;20231;-82
2022/02/04 15:57:53;;;;;;;0.50;0.50;;;;;;;;;;5111808;28;20223;-82
2022/02/04 16:00:49;;;;;;;0.80;0.80;;;;;;;;;;5124525;28;20225;-82
2022/02/04 16:06:01;;;;;;;0.60;0.60;;;;;;;;;;5116546;28;20200;-82
2022/02/04 16:08:30;;;;;;;0.50;0.50;;;;;;;;;;5123881;28;20676;-82
2022/02/04 16:11:01;;;;;;;0.82;0.82;;;;;;;;;;5123593;28;20302;-83
2022/02/04 16:13:41;;;;;;;1.00;1.00;;;;;;;;;;5123836;28;20227;-82
2022/02/04 16:16:22;;;;;;;0.73;0.60;;;;;;;;;;5124273;28;20226;-83
2022/02/04 16:19:01;;;;;;;0.60;0.60;;;;;;;;;;5124219;28;20219;-83
2022/02/04 16:21:36;;;;;;;1.05;0.80;;;;;;;;;;5118798;28;20210;-83
2022/02/04 16:24:22;;;;;;;0.70;0.70;;;;;;;;;;5124756;28;20230;-82
2022/02/04 16:26:55;;;;;;;0.75;0.75;;;;;;;;;;5124503;28;20207;-82
2022/02/04 16:29:22;;;;;;;0.60;0.60;;;;;;;;;;5126291;28;20208;-81
2022/02/04 16:31:50;;;;;;;0.70;0.70;;;;;;;;;;5124296;28;20223;-82
2022/02/04 16:34:19;;;;;;;0.73;0.73;;;;;;;;;;5125183;28;20215;-83
2022/02/04 16:36:49;;;;;;;0.75;0.68;;;;;;;;;;5124001;28;20463;-83
2022/02/04 16:39:19;;;;;;;0.88;0.88;;;;;;;;;;5124398;28;20281;-83
2022/02/04 16:41:51;;;;;;;1.00;1.00;;;;;;;;;;5124399;28;20729;-83
2022/02/04 16:44:19;;;;;;;1.10;1.00;;;;;;;;;;5123191;28;20271;-81
2022/02/04 16:46:47;;;;;;;1.27;1.27;;;;;;;;;;5116120;28;20642;-82
2022/02/04 16:49:14;;;;;;;1.02;1.02;;;;;;;;;;5116781;28;20196;-83
2022/02/04 16:51:41;;;;;;;0.98;0.98;;;;;;;;;;5115733;28;20208;-83
2022/02/04 16:54:09;;;;;;;1.20;1.10;;;;;;;;;;5125343;28;20474;-81
2022/02/04 16:56:38;;;;;;;1.10;1.10;;;;;;;;;;5116725;28;20644;-82
2022/02/04 16:59:05;;;;;;;0.70;0.70;;;;;;;;;;5111889;28;20224;-82
2022/02/04 17:01:33;;;;;;;0.60;0.60;;;;;;;;;;5123110;28;20622;-84
2022/02/04 17:04:03;;;;;;;0.57;0.57;;;;;;;;;;5109729;28;20199;-83
2022/02/04 17:06:35;;;;;;;1.05;1.05;;;;;;;;;;5121286;28;20203;-83
2022/02/04 17:09:20;;;;;;;5.25;4.85;;;;;;;;;;5120769;28;20207;-83
2022/02/04 17:12:00;;;;;;;4.30;3.90;;;;;;;;;;5119709;28;20223;-83
2022/02/04 17:14:28;;;;;;;2.33;2.13;;;;;;;;;;5119804;28;20667;-82
2022/02/04 17:16:56;;;;;;;1.63;1.52;;;;;;;;;;5120746;28;20199;-83
2022/02/04 17:19:27;;;;;;;1.02;1.02;;;;;;;;;;5120409;28;20228;-84
2022/02/04 17:21:59;;;;;;;0.82;0.82;;;;;;;;;;5118961;28;20233;-84
2022/02/04 17:24:27;;;;;;;1.15;1.10;;;;;;;;;;5119902;28;20561;-83
2022/02/04 17:26:56;;;;;;;1.00;0.98;;;;;;;;;;5119064;28;20207;-83
2022/02/04 17:29:27;;;;;;;0.80;0.80;;;;;;;;;;5118664;28;20693;-83
2022/02/04 17:31:55;;;;;;;1.08;1.08;;;;;;;;;;5113500;28;20315;-83
2022/02/04 17:34:22;;;;;;;0.80;0.80;;;;;;;;;;5116748;28;20204;-83
2022/02/04 17:36:49;;;;;;;0.80;0.80;;;;;;;;;;5121288;28;20235;-84
2022/02/04 17:39:19;;;;;;;0.73;0.73;;;;;;;;;;5122639;28;20234;-84
2022/02/04 17:41:49;;;;;;;0.57;0.57;;;;;;;;;;5121450;28;20601;-84
2022/02/04 17:44:19;;;;;;;0.80;0.80;;;;;;;;;;5122861;28;20208;-83
2022/02/04 17:46:48;;;;;;;1.40;1.30;;;;;;;;;;5116194;28;20200;-83
2022/02/04 17:49:21;;;;;;;1.50;1.40;;;;;;;;;;5122969;28;20226;-83
2022/02/04 17:51:53;;;;;;;1.08;1.00;;;;;;;;;;5123054;28;20317;-83
2022/02/04 17:54:30;;;;;;;1.30;1.20;;;;;;;;;;5123821;28;20212;-85
2022/02/04 18:00:05;;;;;;;1.00;1.00;;;;;;;;;;5118564;28;20219;-84
2022/02/04 18:02:38;;;;;;;0.93;0.93;;;;;;;;;;5119599;28;20219;-86
2022/02/04 18:05:28;;;;;;;1.30;1.20;;;;;;;;;;5118236;28;20235;-84
2022/02/04 18:07:56;;;;;;;1.90;1.80;;;;;;;;;;5116549;28;20207;-84
2022/02/04 18:10:23;;;;;;;1.77;1.67;;;;;;;;;;5116770;28;20297;-84
2022/02/04 18:12:51;;;;;;;1.35;1.25;;;;;;;;;;5117415;28;20633;-84
2022/02/04 18:15:20;;;;;;;0.80;0.80;;;;;;;;;;5116620;28;20204;-82
2022/02/04 18:17:47;;;;;;;0.98;0.98;;;;;;;;;;5117831;28;20210;-83
2022/02/04 18:20:15;;;;;;;1.13;1.13;;;;;;;;;;5116842;28;20298;-84
2022/02/04 18:22:44;;;;;;;1.15;1.10;;;;;;;;;;5116743;28;20647;-81
2022/02/04 18:25:11;;;;;;;0.90;0.90;;;;;;;;;;5119049;28;20304;-81
2022/02/04 18:27:39;;;;;;;0.90;0.90;;;;;;;;;;5119470;28;20209;-82
2022/02/04 18:30:09;;;;;;;1.05;0.90;;;;;;;;;;5117201;28;20195;-82
2022/02/04 18:32:40;;;;;;;1.20;1.10;;;;;;;;;;5111072;28;20219;-82
2022/02/04 18:35:08;;;;;;;1.08;1.08;;;;;;;;;;5117541;28;20981;-82
2022/02/04 18:37:40;;;;;;;0.98;0.98;;;;;;;;;;5117121;28;20217;-82
2022/02/04 18:40:28;;;;;;;0.93;0.93;;;;;;;;;;5117159;28;20219;-82
2022/02/04 18:45:46;;;;;;;0.80;0.80;;;;;;;;;;5081357;28;20213;-81
2022/02/04 18:48:18;;;;;;;2.33;1.15;;;;;;;;;;5117818;28;20212;-82
2022/02/04 18:51:01;;;;;;;0.90;0.90;;;;;;;;;;5117847;28;20259;-81
2022/02/04 18:53:36;;;;;;;0.90;0.90;;;;;;;;;;5111006;28;20625;-85
2022/02/04 18:56:31;;;;;;;0.68;0.68;;;;;;;;;;5115001;28;20322;-82
2022/02/04 18:58:59;;;;;;;1.42;1.33;;;;;;;;;;5115737;28;20599;-85
2022/02/04 19:01:28;;;;;;;0.60;0.60;;;;;;;;;;5114673;28;20291;-81
2022/02/04 19:04:02;;;;;;;0.47;0.47;;;;;;;;;;5115582;28;20272;-81
2022/02/04 19:06:34;;;;;;;0.80;0.50;;;;;;;;;;5109602;28;20651;-80
2022/02/04 19:09:04;;;;;;;0.43;0.43;;;;;;;;;;5115400;28;20235;-83
2022/02/04 19:11:35;;;;;;;0.50;0.50;;;;;;;;;;5118944;28;20199;-80
2022/02/04 19:14:06;;;;;;;0.32;0.32;;;;;;;;;;5120645;28;20246;-81
2022/02/04 19:16:45;;;;;;;0.35;0.35;;;;;;;;;;5122166;28;20233;-82
2022/02/04 19:19:20;;;;;;;0.75;0.75;;;;;;;;;;5118646;28;20231;-83
2022/02/04 19:21:58;;;;;;;0.52;0.52;;;;;;;;;;5118853;28;20223;-82
2022/02/04 19:24:29;;;;;;;0.93;0.93;;;;;;;;;;5121106;28;20210;-83
2022/02/04 19:26:56;;;;;;;0.60;0.60;;;;;;;;;;5116345;28;20231;-84
2022/02/04 19:29:24;;;;;;;0.60;0.60;;;;;;;;;;5119455;28;20199;-83
2022/02/04 19:31:54;;;;;;;0.57;0.57;;;;;;;;;;5113446;28;20223;-83
2022/02/04 19:34:25;;;;;;;0.70;0.70;;;;;;;;;;5113901;28;20233;-83